Altoona, IA

11:50 AM CDT on August 25, 2016 (GMT -0500)
Altoona, Iowa (NE) | | Change Station

Elev 938 ft 41.64 °N, 93.45 °W | Updated 10 seconds ago

Overcast
Overcast
70.9 °F
Feels Like 72 °F
N
0.0
Wind Variable Wind from West
Gusts 0.0 mph

Today
High -- | Low -- °F
--% Chance of Precip.
Yesterday
High -- | Low -- °F
Precip. -- in
Pressure 30.11 in
Visibility 10.0 miles
Clouds Scattered Clouds 10000 ft
Mostly Cloudy 13000 ft
Mostly Cloudy 18000 ft
Overcast 25000 ft
Heat Index 72 °F
Dew Point 64 °F
Humidity 79%
Rainfall 0.11 in
Snow Depth Not available.
6:33 AM 7:57 PM
Last Quarter, 44% visible
METAR KDSM 251554Z 31006KT 10SM -RA SCT100 BKN130 BKN180 OVC250 21/17 A3012 RMK AO2 RAB46 SLP194 P0000 T02110172
Pressure 30.11 in
Visibility 10.0 miles
Clouds Scattered Clouds 10000 ft
Mostly Cloudy 13000 ft
Mostly Cloudy 18000 ft
Overcast 25000 ft
Heat Index 72 °F
Dew Point 64 °F
Humidity 79%
Rainfall 0.11 in
Snow Depth Not available.
6:33 AM 7:57 PM
Last Quarter, 44% visible
METAR KDSM 251554Z 31006KT 10SM -RA SCT100 BKN130 BKN180 OVC250 21/17 A3012 RMK AO2 RAB46 SLP194 P0000 T02110172

10-Day Weather Forecast

Almanac

Astronomy

Aug. 25, 2016 Rise Set
Actual Time
Civil Twilight
Nautical Twilight
Astronomical Twilight
Moon
Length of Visible Light
Length of Day
Tomorrow will be .
, % of the Moon is Illuminated

Today's Extremes

State Highs State Lows

Community

WunderPhotos

Upload Photos

1,934,869 photos uploaded!

WunderBlog® & News

Nearby

Air Quality

  Air Quality AQ Index Pollutant
Not available.

Snow Depth

Station Depth Elevation

Earthquake Activity

City Distance Mag. Time & Date
Minimum magnitude displayed is 2.5.

Coastal Water Temperatures

Place Temperature

Stations

Nearby Weather Stations

Station Location Temp. Windchill Dew Point Humidity Wind Precip. Elev Updated Type
                   

Watches & Warnings

There are currently no watches in effect.